sensor_id;sensor_type;location;lat;lon;timestamp;temperature;humidity
15666;DHT22;20725;51.196;3.510;2023-03-14T00:01:58;10.10;96.50
15666;DHT22;20725;51.196;3.510;2023-03-14T00:04:25;10.10;96.50
15666;DHT22;20725;51.196;3.510;2023-03-14T00:06:52;10.10;96.80
15666;DHT22;20725;51.196;3.510;2023-03-14T00:09:19;10.00;97.30
15666;DHT22;20725;51.196;3.510;2023-03-14T00:11:46;9.90;97.30
15666;DHT22;20725;51.196;3.510;2023-03-14T00:14:13;9.90;97.60
15666;DHT22;20725;51.196;3.510;2023-03-14T00:16:45;9.90;97.70
15666;DHT22;20725;51.196;3.510;2023-03-14T00:19:12;9.90;97.80
15666;DHT22;20725;51.196;3.510;2023-03-14T00:21:39;9.90;98.10
15666;DHT22;20725;51.196;3.510;2023-03-14T00:24:07;9.80;98.60
15666;DHT22;20725;51.196;3.510;2023-03-14T00:26:34;9.80;98.80
15666;DHT22;20725;51.196;3.510;2023-03-14T00:29:01;9.70;99.20
15666;DHT22;20725;51.196;3.510;2023-03-14T00:31:28;9.70;99.60
15666;DHT22;20725;51.196;3.510;2023-03-14T00:33:57;9.70;99.90
15666;DHT22;20725;51.196;3.510;2023-03-14T00:36:23;9.80;99.90
15666;DHT22;20725;51.196;3.510;2023-03-14T00:38:51;9.80;99.90
15666;DHT22;20725;51.196;3.510;2023-03-14T00:41:19;9.90;99.90
15666;DHT22;20725;51.196;3.510;2023-03-14T00:43:47;9.90;99.90
15666;DHT22;20725;51.196;3.510;2023-03-14T00:46:15;9.90;99.90
15666;DHT22;20725;51.196;3.510;2023-03-14T00:48:43;9.90;99.90
15666;DHT22;20725;51.196;3.510;2023-03-14T00:51:12;9.90;99.90
15666;DHT22;20725;51.196;3.510;2023-03-14T00:53:41;9.90;99.90
15666;DHT22;20725;51.196;3.510;2023-03-14T00:56:10;9.90;99.90
15666;DHT22;20725;51.196;3.510;2023-03-14T00:58:37;10.00;99.90
15666;DHT22;20725;51.196;3.510;2023-03-14T01:06:13;10.00;99.90
15666;DHT22;20725;51.196;3.510;2023-03-14T01:08:41;10.00;99.90
15666;DHT22;20725;51.196;3.510;2023-03-14T01:11:09;10.10;99.90
15666;DHT22;20725;51.196;3.510;2023-03-14T01:13:37;10.10;99.90
15666;DHT22;20725;51.196;3.510;2023-03-14T01:16:06;10.10;99.90
15666;DHT22;20725;51.196;3.510;2023-03-14T01:18:34;10.10;99.90
15666;DHT22;20725;51.196;3.510;2023-03-14T01:21:09;10.20;99.90
15666;DHT22;20725;51.196;3.510;2023-03-14T01:23:38;10.20;99.90
15666;DHT22;20725;51.196;3.510;2023-03-14T01:26:08;10.20;99.90
15666;DHT22;20725;51.196;3.510;2023-03-14T01:28:36;10.20;99.90
15666;DHT22;20725;51.196;3.510;2023-03-14T01:31:03;10.20;99.90
15666;DHT22;20725;51.196;3.510;2023-03-14T01:33:30;10.20;99.90
15666;DHT22;20725;51.196;3.510;2023-03-14T01:35:57;10.30;99.90
15666;DHT22;20725;51.196;3.510;2023-03-14T01:38:24;10.30;99.90
15666;DHT22;20725;51.196;3.510;2023-03-14T01:40:53;10.20;99.90
15666;DHT22;20725;51.196;3.510;2023-03-14T01:43:20;10.20;99.90
15666;DHT22;20725;51.196;3.510;2023-03-14T01:46:17;10.20;99.90
15666;DHT22;20725;51.196;3.510;2023-03-14T01:48:50;10.20;99.90
15666;DHT22;20725;51.196;3.510;2023-03-14T01:51:21;10.20;99.90
15666;DHT22;20725;51.196;3.510;2023-03-14T01:53:51;10.20;99.90
15666;DHT22;20725;51.196;3.510;2023-03-14T01:56:21;10.20;99.90
15666;DHT22;20725;51.196;3.510;2023-03-14T01:58:51;10.10;99.90
15666;DHT22;20725;51.196;3.510;2023-03-14T02:01:21;10.10;99.90
15666;DHT22;20725;51.196;3.510;2023-03-14T02:03:52;10.00;99.90
15666;DHT22;20725;51.196;3.510;2023-03-14T02:06:24;10.00;99.90
15666;DHT22;20725;51.196;3.510;2023-03-14T02:08:52;10.00;99.90
15666;DHT22;20725;51.196;3.510;2023-03-14T02:11:22;10.00;99.90
15666;DHT22;20725;51.196;3.510;2023-03-14T02:13:53;10.00;99.90
15666;DHT22;20725;51.196;3.510;2023-03-14T02:16:20;10.00;99.90
15666;DHT22;20725;51.196;3.510;2023-03-14T02:18:47;10.00;99.90
15666;DHT22;20725;51.196;3.510;2023-03-14T02:21:19;10.10;99.90
15666;DHT22;20725;51.196;3.510;2023-03-14T02:23:53;10.10;99.90
15666;DHT22;20725;51.196;3.510;2023-03-14T02:26:28;10.10;99.90
15666;DHT22;20725;51.196;3.510;2023-03-14T02:28:59;10.10;99.90
15666;DHT22;20725;51.196;3.510;2023-03-14T02:31:26;10.10;99.90
15666;DHT22;20725;51.196;3.510;2023-03-14T02:33:55;10.10;99.90
15666;DHT22;20725;51.196;3.510;2023-03-14T02:36:23;10.20;99.90
15666;DHT22;20725;51.196;3.510;2023-03-14T02:38:53;10.20;99.90
15666;DHT22;20725;51.196;3.510;2023-03-14T02:41:22;10.20;99.90
15666;DHT22;20725;51.196;3.510;2023-03-14T02:43:49;10.10;99.90
15666;DHT22;20725;51.196;3.510;2023-03-14T02:46:20;10.10;99.90
15666;DHT22;20725;51.196;3.510;2023-03-14T02:48:50;10.10;99.90
15666;DHT22;20725;51.196;3.510;2023-03-14T02:51:20;10.00;99.90
15666;DHT22;20725;51.196;3.510;2023-03-14T02:53:47;10.00;99.90
15666;DHT22;20725;51.196;3.510;2023-03-14T02:56:14;10.00;99.90
15666;DHT22;20725;51.196;3.510;2023-03-14T02:58:41;10.00;99.90
15666;DHT22;20725;51.196;3.510;2023-03-14T03:01:08;10.10;99.90
15666;DHT22;20725;51.196;3.510;2023-03-14T03:03:37;10.10;99.90
15666;DHT22;20725;51.196;3.510;2023-03-14T03:06:04;10.10;99.90
15666;DHT22;20725;51.196;3.510;2023-03-14T03:08:31;10.10;99.90
15666;DHT22;20725;51.196;3.510;2023-03-14T03:10:59;10.10;99.90
15666;DHT22;20725;51.196;3.510;2023-03-14T03:13:25;10.10;99.90
15666;DHT22;20725;51.196;3.510;2023-03-14T03:15:53;10.20;99.90
15666;DHT22;20725;51.196;3.510;2023-03-14T03:18:20;10.10;99.90
15666;DHT22;20725;51.196;3.510;2023-03-14T03:20:48;10.10;99.90
15666;DHT22;20725;51.196;3.510;2023-03-14T03:23:15;10.20;99.90
15666;DHT22;20725;51.196;3.510;2023-03-14T03:25:42;10.00;99.90
15666;DHT22;20725;51.196;3.510;2023-03-14T03:28:14;10.00;99.90
15666;DHT22;20725;51.196;3.510;2023-03-14T03:30:41;9.90;99.90
15666;DHT22;20725;51.196;3.510;2023-03-14T03:33:09;9.90;99.90
15666;DHT22;20725;51.196;3.510;2023-03-14T03:35:42;9.90;99.90
15666;DHT22;20725;51.196;3.510;2023-03-14T03:38:11;9.90;99.90
15666;DHT22;20725;51.196;3.510;2023-03-14T03:40:38;9.80;99.90
15666;DHT22;20725;51.196;3.510;2023-03-14T03:43:05;9.80;99.90
15666;DHT22;20725;51.196;3.510;2023-03-14T03:45:32;9.80;99.90
15666;DHT22;20725;51.196;3.510;2023-03-14T03:47:59;9.90;99.90
15666;DHT22;20725;51.196;3.510;2023-03-14T03:50:26;9.90;99.90
15666;DHT22;20725;51.196;3.510;2023-03-14T03:52:53;10.00;99.90
15666;DHT22;20725;51.196;3.510;2023-03-14T03:55:22;10.10;99.90
15666;DHT22;20725;51.196;3.510;2023-03-14T03:57:52;10.10;99.90
15666;DHT22;20725;51.196;3.510;2023-03-14T04:00:19;10.10;99.90
15666;DHT22;20725;51.196;3.510;2023-03-14T04:02:46;10.10;99.90
15666;DHT22;20725;51.196;3.510;2023-03-14T04:05:16;10.20;99.90
15666;DHT22;20725;51.196;3.510;2023-03-14T04:07:46;10.20;99.90
15666;DHT22;20725;51.196;3.510;2023-03-14T04:10:14;10.20;99.90
15666;DHT22;20725;51.196;3.510;2023-03-14T04:12:51;10.20;99.90
15666;DHT22;20725;51.196;3.510;2023-03-14T04:15:18;10.20;99.90
15666;DHT22;20725;51.196;3.510;2023-03-14T04:17:47;10.10;99.90
15666;DHT22;20725;51.196;3.510;2023-03-14T04:20:17;10.20;99.90
15666;DHT22;20725;51.196;3.510;2023-03-14T04:22:44;10.20;99.90
15666;DHT22;20725;51.196;3.510;2023-03-14T04:25:11;10.20;99.90
15666;DHT22;20725;51.196;3.510;2023-03-14T04:27:38;10.10;99.90
15666;DHT22;20725;51.196;3.510;2023-03-14T04:30:10;10.10;99.90
15666;DHT22;20725;51.196;3.510;2023-03-14T04:32:40;10.10;99.90
15666;DHT22;20725;51.196;3.510;2023-03-14T04:35:08;10.10;99.90
15666;DHT22;20725;51.196;3.510;2023-03-14T04:37:35;10.10;99.90
15666;DHT22;20725;51.196;3.510;2023-03-14T04:40:03;9.90;99.90
15666;DHT22;20725;51.196;3.510;2023-03-14T04:42:32;9.70;99.90
15666;DHT22;20725;51.196;3.510;2023-03-14T04:44:59;9.40;99.90
15666;DHT22;20725;51.196;3.510;2023-03-14T04:47:27;9.10;99.90
15666;DHT22;20725;51.196;3.510;2023-03-14T04:49:54;9.60;99.90
15666;DHT22;20725;51.196;3.510;2023-03-14T04:52:21;9.50;99.90
15666;DHT22;20725;51.196;3.510;2023-03-14T04:54:48;9.40;99.90
15666;DHT22;20725;51.196;3.510;2023-03-14T04:57:15;9.40;99.90
15666;DHT22;20725;51.196;3.510;2023-03-14T04:59:42;10.20;99.90
15666;DHT22;20725;51.196;3.510;2023-03-14T05:02:09;10.10;99.90
15666;DHT22;20725;51.196;3.510;2023-03-14T05:04:40;9.90;99.90
15666;DHT22;20725;51.196;3.510;2023-03-14T05:07:10;10.00;99.90
15666;DHT22;20725;51.196;3.510;2023-03-14T05:09:50;10.30;99.90
15666;DHT22;20725;51.196;3.510;2023-03-14T05:12:28;10.00;99.90
15666;DHT22;20725;51.196;3.510;2023-03-14T05:15:27;10.20;99.90
15666;DHT22;20725;51.196;3.510;2023-03-14T05:18:07;10.00;99.90
15666;DHT22;20725;51.196;3.510;2023-03-14T05:21:40;10.30;99.90
15666;DHT22;20725;51.196;3.510;2023-03-14T05:24:40;9.40;99.90
15666;DHT22;20725;51.196;3.510;2023-03-14T05:31:10;9.10;99.90
15666;DHT22;20725;51.196;3.510;2023-03-14T05:33:43;9.00;99.90
15666;DHT22;20725;51.196;3.510;2023-03-14T05:36:30;8.60;99.90
15666;DHT22;20725;51.196;3.510;2023-03-14T05:39:08;8.60;99.90
15666;DHT22;20725;51.196;3.510;2023-03-14T05:41:53;8.30;99.90
15666;DHT22;20725;51.196;3.510;2023-03-14T05:44:45;8.30;99.90
15666;DHT22;20725;51.196;3.510;2023-03-14T05:47:14;8.30;99.90
15666;DHT22;20725;51.196;3.510;2023-03-14T05:50:48;7.90;99.90
15666;DHT22;20725;51.196;3.510;2023-03-14T05:53:38;7.80;99.90
15666;DHT22;20725;51.196;3.510;2023-03-14T05:56:12;7.80;99.90
15666;DHT22;20725;51.196;3.510;2023-03-14T05:59:06;7.60;99.90
15666;DHT22;20725;51.196;3.510;2023-03-14T06:01:58;8.10;99.90
15666;DHT22;20725;51.196;3.510;2023-03-14T06:04:38;7.90;99.90
15666;DHT22;20725;51.196;3.510;2023-03-14T06:07:23;7.60;99.90
15666;DHT22;20725;51.196;3.510;2023-03-14T06:10:19;7.70;99.90
15666;DHT22;20725;51.196;3.510;2023-03-14T06:12:56;7.50;99.90
15666;DHT22;20725;51.196;3.510;2023-03-14T06:15:27;7.60;99.90
15666;DHT22;20725;51.196;3.510;2023-03-14T06:17:57;7.60;99.90
15666;DHT22;20725;51.196;3.510;2023-03-14T06:20:26;7.20;99.90
15666;DHT22;20725;51.196;3.510;2023-03-14T06:22:54;7.60;99.90
15666;DHT22;20725;51.196;3.510;2023-03-14T06:25:22;7.80;99.90
15666;DHT22;20725;51.196;3.510;2023-03-14T06:27:50;7.50;99.90
15666;DHT22;20725;51.196;3.510;2023-03-14T06:30:17;7.90;99.90
15666;DHT22;20725;51.196;3.510;2023-03-14T06:32:44;7.90;99.90
15666;DHT22;20725;51.196;3.510;2023-03-14T06:35:11;7.70;99.90
15666;DHT22;20725;51.196;3.510;2023-03-14T06:37:38;7.90;99.90
15666;DHT22;20725;51.196;3.510;2023-03-14T06:40:22;8.00;99.90
15666;DHT22;20725;51.196;3.510;2023-03-14T06:43:16;8.10;99.90
15666;DHT22;20725;51.196;3.510;2023-03-14T06:46:05;7.80;99.90
15666;DHT22;20725;51.196;3.510;2023-03-14T06:48:57;7.50;99.90
15666;DHT22;20725;51.196;3.510;2023-03-14T06:51:56;7.90;99.90
15666;DHT22;20725;51.196;3.510;2023-03-14T06:57:30;7.50;99.90
15666;DHT22;20725;51.196;3.510;2023-03-14T07:00:31;7.90;99.90
15666;DHT22;20725;51.196;3.510;2023-03-14T07:03:26;7.20;99.90
15666;DHT22;20725;51.196;3.510;2023-03-14T07:06:23;7.10;99.90
15666;DHT22;20725;51.196;3.510;2023-03-14T07:09:04;7.30;99.90
15666;DHT22;20725;51.196;3.510;2023-03-14T07:11:55;7.10;99.90
15666;DHT22;20725;51.196;3.510;2023-03-14T07:14:49;7.60;99.90
15666;DHT22;20725;51.196;3.510;2023-03-14T07:17:47;7.60;99.90
15666;DHT22;20725;51.196;3.510;2023-03-14T07:23:50;6.80;99.90
15666;DHT22;20725;51.196;3.510;2023-03-14T07:26:43;7.20;99.90
15666;DHT22;20725;51.196;3.510;2023-03-14T07:29:38;6.80;99.90
15666;DHT22;20725;51.196;3.510;2023-03-14T07:32:40;7.30;99.90
15666;DHT22;20725;51.196;3.510;2023-03-14T07:35:52;7.00;99.90
15666;DHT22;20725;51.196;3.510;2023-03-14T07:39:41;6.50;99.90
15666;DHT22;20725;51.196;3.510;2023-03-14T07:57:54;6.90;99.90
15666;DHT22;20725;51.196;3.510;2023-03-14T08:02:36;6.40;99.90
15666;DHT22;20725;51.196;3.510;2023-03-14T08:04:31;7.20;99.90
15666;DHT22;20725;51.196;3.510;2023-03-14T08:07:48;6.60;99.90
15666;DHT22;20725;51.196;3.510;2023-03-14T08:11:08;6.50;99.90
15666;DHT22;20725;51.196;3.510;2023-03-14T08:14:14;7.60;99.90
15666;DHT22;20725;51.196;3.510;2023-03-14T08:17:05;6.90;99.90
15666;DHT22;20725;51.196;3.510;2023-03-14T08:20:00;7.10;99.90
15666;DHT22;20725;51.196;3.510;2023-03-14T08:23:00;7.70;99.90
15666;DHT22;20725;51.196;3.510;2023-03-14T08:29:39;7.80;99.90
15666;DHT22;20725;51.196;3.510;2023-03-14T08:39:28;7.80;99.90
15666;DHT22;20725;51.196;3.510;2023-03-14T08:42:31;8.10;99.90
15666;DHT22;20725;51.196;3.510;2023-03-14T08:45:49;9.60;99.90
15666;DHT22;20725;51.196;3.510;2023-03-14T08:48:57;9.80;99.90
15666;DHT22;20725;51.196;3.510;2023-03-14T08:52:10;9.30;99.90
15666;DHT22;20725;51.196;3.510;2023-03-14T08:54:51;9.00;99.90
15666;DHT22;20725;51.196;3.510;2023-03-14T08:57:39;8.40;99.90
15666;DHT22;20725;51.196;3.510;2023-03-14T09:01:09;8.10;99.90
15666;DHT22;20725;51.196;3.510;2023-03-14T09:03:25;7.90;99.90
15666;DHT22;20725;51.196;3.510;2023-03-14T09:05:54;7.70;99.90
15666;DHT22;20725;51.196;3.510;2023-03-14T09:08:45;7.90;99.90
15666;DHT22;20725;51.196;3.510;2023-03-14T09:11:36;7.70;99.90
15666;DHT22;20725;51.196;3.510;2023-03-14T09:18:04;7.50;99.90
15666;DHT22;20725;51.196;3.510;2023-03-14T09:21:04;7.30;99.90
15666;DHT22;20725;51.196;3.510;2023-03-14T09:23:36;7.30;99.90
15666;DHT22;20725;51.196;3.510;2023-03-14T09:26:15;7.00;99.90
15666;DHT22;20725;51.196;3.510;2023-03-14T09:29:20;7.10;99.90
15666;DHT22;20725;51.196;3.510;2023-03-14T09:32:36;6.90;99.90
15666;DHT22;20725;51.196;3.510;2023-03-14T09:35:50;7.10;99.90
15666;DHT22;20725;51.196;3.510;2023-03-14T09:42:26;7.20;99.90
15666;DHT22;20725;51.196;3.510;2023-03-14T09:45:05;6.90;99.90
15666;DHT22;20725;51.196;3.510;2023-03-14T09:47:39;7.20;99.90
15666;DHT22;20725;51.196;3.510;2023-03-14T09:53:17;7.40;99.90
15666;DHT22;20725;51.196;3.510;2023-03-14T09:53:47;7.60;99.90
15666;DHT22;20725;51.196;3.510;2023-03-14T09:59:39;7.00;99.90
15666;DHT22;20725;51.196;3.510;2023-03-14T10:05:20;7.40;99.90
15666;DHT22;20725;51.196;3.510;2023-03-14T10:08:40;7.60;99.90
15666;DHT22;20725;51.196;3.510;2023-03-14T10:31:48;8.50;99.90
15666;DHT22;20725;51.196;3.510;2023-03-14T10:38:12;9.00;99.90
15666;DHT22;20725;51.196;3.510;2023-03-14T10:41:30;9.80;99.90
15666;DHT22;20725;51.196;3.510;2023-03-14T10:44:20;11.60;99.90
15666;DHT22;20725;51.196;3.510;2023-03-14T10:47:03;12.90;99.90
15666;DHT22;20725;51.196;3.510;2023-03-14T10:49:51;12.10;99.90
15666;DHT22;20725;51.196;3.510;2023-03-14T10:52:27;11.70;99.90
15666;DHT22;20725;51.196;3.510;2023-03-14T10:55:15;11.30;99.90
15666;DHT22;20725;51.196;3.510;2023-03-14T10:57:58;11.00;99.90
15666;DHT22;20725;51.196;3.510;2023-03-14T11:03:18;10.10;99.90
15666;DHT22;20725;51.196;3.510;2023-03-14T11:05:56;10.20;99.90
15666;DHT22;20725;51.196;3.510;2023-03-14T11:08:37;10.30;99.90
15666;DHT22;20725;51.196;3.510;2023-03-14T11:11:16;10.20;99.90
15666;DHT22;20725;51.196;3.510;2023-03-14T11:14:11;9.90;99.90
15666;DHT22;20725;51.196;3.510;2023-03-14T11:16:52;9.70;99.90
15666;DHT22;20725;51.196;3.510;2023-03-14T11:19:38;9.80;99.90
15666;DHT22;20725;51.196;3.510;2023-03-14T11:22:28;9.70;99.90
15666;DHT22;20725;51.196;3.510;2023-03-14T11:25:17;9.50;99.90
15666;DHT22;20725;51.196;3.510;2023-03-14T11:28:03;9.50;99.90
15666;DHT22;20725;51.196;3.510;2023-03-14T11:30:42;8.90;99.90
15666;DHT22;20725;51.196;3.510;2023-03-14T11:33:21;8.40;99.90
15666;DHT22;20725;51.196;3.510;2023-03-14T11:36:07;8.40;99.90
15666;DHT22;20725;51.196;3.510;2023-03-14T11:38:46;8.70;99.90
15666;DHT22;20725;51.196;3.510;2023-03-14T11:41:20;8.70;99.90
15666;DHT22;20725;51.196;3.510;2023-03-14T11:43:54;8.50;99.90
15666;DHT22;20725;51.196;3.510;2023-03-14T11:46:27;8.60;99.90
15666;DHT22;20725;51.196;3.510;2023-03-14T11:48:59;8.60;99.90
15666;DHT22;20725;51.196;3.510;2023-03-14T11:51:34;8.40;99.90
15666;DHT22;20725;51.196;3.510;2023-03-14T11:54:08;8.30;99.90
15666;DHT22;20725;51.196;3.510;2023-03-14T11:56:46;8.70;99.90
15666;DHT22;20725;51.196;3.510;2023-03-14T11:59:21;9.00;99.90
15666;DHT22;20725;51.196;3.510;2023-03-14T12:01:53;8.80;99.90
15666;DHT22;20725;51.196;3.510;2023-03-14T12:04:33;8.50;99.90
15666;DHT22;20725;51.196;3.510;2023-03-14T12:07:16;7.70;99.90
15666;DHT22;20725;51.196;3.510;2023-03-14T12:09:50;7.30;99.90
15666;DHT22;20725;51.196;3.510;2023-03-14T12:12:25;7.00;99.90
15666;DHT22;20725;51.196;3.510;2023-03-14T12:15:03;7.20;99.90
15666;DHT22;20725;51.196;3.510;2023-03-14T12:17:36;7.50;99.90
15666;DHT22;20725;51.196;3.510;2023-03-14T12:20:11;7.80;99.90
15666;DHT22;20725;51.196;3.510;2023-03-14T12:22:45;7.80;99.90
15666;DHT22;20725;51.196;3.510;2023-03-14T12:25:17;7.90;99.90
15666;DHT22;20725;51.196;3.510;2023-03-14T12:28:04;8.20;99.90
15666;DHT22;20725;51.196;3.510;2023-03-14T12:30:32;8.50;99.90
15666;DHT22;20725;51.196;3.510;2023-03-14T12:33:26;7.70;99.90
15666;DHT22;20725;51.196;3.510;2023-03-14T12:35:59;7.90;99.90
15666;DHT22;20725;51.196;3.510;2023-03-14T12:38:37;8.10;99.90
15666;DHT22;20725;51.196;3.510;2023-03-14T12:41:14;8.50;99.90
15666;DHT22;20725;51.196;3.510;2023-03-14T12:43:41;8.80;99.90
15666;DHT22;20725;51.196;3.510;2023-03-14T12:46:24;8.60;99.90
15666;DHT22;20725;51.196;3.510;2023-03-14T12:49:05;8.50;99.90
15666;DHT22;20725;51.196;3.510;2023-03-14T12:51:36;8.20;99.90
15666;DHT22;20725;51.196;3.510;2023-03-14T12:54:21;8.50;99.90
15666;DHT22;20725;51.196;3.510;2023-03-14T12:57:04;8.50;99.90
15666;DHT22;20725;51.196;3.510;2023-03-14T12:59:35;8.00;99.90
15666;DHT22;20725;51.196;3.510;2023-03-14T13:02:18;8.60;99.90
15666;DHT22;20725;51.196;3.510;2023-03-14T13:04:49;8.40;99.90
15666;DHT22;20725;51.196;3.510;2023-03-14T13:07:34;9.20;99.90
15666;DHT22;20725;51.196;3.510;2023-03-14T13:10:18;10.40;99.90
15666;DHT22;20725;51.196;3.510;2023-03-14T13:12:49;10.80;99.90
15666;DHT22;20725;51.196;3.510;2023-03-14T13:15:23;11.20;99.90
15666;DHT22;20725;51.196;3.510;2023-03-14T13:17:52;11.10;99.90
15666;DHT22;20725;51.196;3.510;2023-03-14T13:20:28;10.50;91.40
15666;DHT22;20725;51.196;3.510;2023-03-14T13:22:56;9.50;83.00
15666;DHT22;20725;51.196;3.510;2023-03-14T13:25:29;8.50;87.80
15666;DHT22;20725;51.196;3.510;2023-03-14T13:27:58;7.80;90.20
15666;DHT22;20725;51.196;3.510;2023-03-14T13:30:35;7.70;94.60
15666;DHT22;20725;51.196;3.510;2023-03-14T13:33:11;7.70;96.50
15666;DHT22;20725;51.196;3.510;2023-03-14T13:35:40;7.70;92.40
15666;DHT22;20725;51.196;3.510;2023-03-14T13:38:16;7.70;93.10
15666;DHT22;20725;51.196;3.510;2023-03-14T13:40:49;7.50;92.00
15666;DHT22;20725;51.196;3.510;2023-03-14T13:43:27;7.70;91.30
15666;DHT22;20725;51.196;3.510;2023-03-14T13:46:02;7.80;92.20
15666;DHT22;20725;51.196;3.510;2023-03-14T13:48:52;8.10;94.50
15666;DHT22;20725;51.196;3.510;2023-03-14T13:51:26;8.20;90.50
15666;DHT22;20725;51.196;3.510;2023-03-14T13:53:57;8.20;90.50
15666;DHT22;20725;51.196;3.510;2023-03-14T13:56:36;8.30;91.40
15666;DHT22;20725;51.196;3.510;2023-03-14T13:59:26;8.20;88.00
15666;DHT22;20725;51.196;3.510;2023-03-14T14:02:02;8.20;93.70
15666;DHT22;20725;51.196;3.510;2023-03-14T14:04:36;8.40;92.10
15666;DHT22;20725;51.196;3.510;2023-03-14T14:07:07;8.50;87.70
15666;DHT22;20725;51.196;3.510;2023-03-14T14:09:43;8.50;85.40
15666;DHT22;20725;51.196;3.510;2023-03-14T14:12:18;8.40;81.30
15666;DHT22;20725;51.196;3.510;2023-03-14T14:15:01;8.40;83.30
15666;DHT22;20725;51.196;3.510;2023-03-14T14:17:47;8.40;78.80
15666;DHT22;20725;51.196;3.510;2023-03-14T14:20:23;8.50;76.50
15666;DHT22;20725;51.196;3.510;2023-03-14T14:23:05;8.70;81.90
15666;DHT22;20725;51.196;3.510;2023-03-14T14:25:38;8.70;79.70
15666;DHT22;20725;51.196;3.510;2023-03-14T14:28:36;8.90;81.00
15666;DHT22;20725;51.196;3.510;2023-03-14T14:34:43;8.90;81.20
15666;DHT22;20725;51.196;3.510;2023-03-14T14:37:27;8.80;81.40
15666;DHT22;20725;51.196;3.510;2023-03-14T14:40:06;8.40;79.10
15666;DHT22;20725;51.196;3.510;2023-03-14T14:42:45;8.40;84.70
15666;DHT22;20725;51.196;3.510;2023-03-14T14:45:25;8.30;82.80
15666;DHT22;20725;51.196;3.510;2023-03-14T14:48:19;8.40;85.00
15666;DHT22;20725;51.196;3.510;2023-03-14T14:51:04;8.40;84.60
15666;DHT22;20725;51.196;3.510;2023-03-14T14:53:44;8.30;86.20
15666;DHT22;20725;51.196;3.510;2023-03-14T14:56:27;8.40;86.10
15666;DHT22;20725;51.196;3.510;2023-03-14T14:59:18;8.20;82.00
15666;DHT22;20725;51.196;3.510;2023-03-14T15:02:16;8.20;83.70
15666;DHT22;20725;51.196;3.510;2023-03-14T15:05:04;8.20;81.00
15666;DHT22;20725;51.196;3.510;2023-03-14T15:07:52;8.30;82.70
15666;DHT22;20725;51.196;3.510;2023-03-14T15:10:38;8.30;81.50
15666;DHT22;20725;51.196;3.510;2023-03-14T15:13:35;8.40;79.30
15666;DHT22;20725;51.196;3.510;2023-03-14T15:16:14;8.30;83.60
15666;DHT22;20725;51.196;3.510;2023-03-14T15:18:57;8.50;82.40
15666;DHT22;20725;51.196;3.510;2023-03-14T15:24:37;8.70;81.70
15666;DHT22;20725;51.196;3.510;2023-03-14T15:27:26;8.70;81.10
15666;DHT22;20725;51.196;3.510;2023-03-14T15:30:14;8.90;78.60
15666;DHT22;20725;51.196;3.510;2023-03-14T15:32:48;9.20;78.80
15666;DHT22;20725;51.196;3.510;2023-03-14T15:35:29;10.50;80.40
15666;DHT22;20725;51.196;3.510;2023-03-14T15:38:09;13.90;66.70
15666;DHT22;20725;51.196;3.510;2023-03-14T15:40:45;17.20;61.50
15666;DHT22;20725;51.196;3.510;2023-03-14T15:43:35;18.00;47.90
15666;DHT22;20725;51.196;3.510;2023-03-14T15:46:08;18.30;51.80
15666;DHT22;20725;51.196;3.510;2023-03-14T15:48:59;17.50;45.80
15666;DHT22;20725;51.196;3.510;2023-03-14T15:55:36;19.60;40.40
15666;DHT22;20725;51.196;3.510;2023-03-14T15:58:22;16.20;46.50
15666;DHT22;20725;51.196;3.510;2023-03-14T16:01:08;15.10;49.00
15666;DHT22;20725;51.196;3.510;2023-03-14T16:03:45;13.60;47.30
15666;DHT22;20725;51.196;3.510;2023-03-14T16:06:39;12.40;51.30
15666;DHT22;20725;51.196;3.510;2023-03-14T16:09:36;11.20;54.10
15666;DHT22;20725;51.196;3.510;2023-03-14T16:12:14;10.70;56.60
15666;DHT22;20725;51.196;3.510;2023-03-14T16:15:04;10.30;58.00
15666;DHT22;20725;51.196;3.510;2023-03-14T16:17:43;10.10;58.90
15666;DHT22;20725;51.196;3.510;2023-03-14T16:20:23;10.20;58.60
15666;DHT22;20725;51.196;3.510;2023-03-14T16:22:53;10.00;58.90
15666;DHT22;20725;51.196;3.510;2023-03-14T16:25:34;9.70;58.30
15666;DHT22;20725;51.196;3.510;2023-03-14T16:28:18;9.60;61.00
15666;DHT22;20725;51.196;3.510;2023-03-14T16:31:00;9.60;61.20
15666;DHT22;20725;51.196;3.510;2023-03-14T16:33:46;8.90;61.50
15666;DHT22;20725;51.196;3.510;2023-03-14T16:36:24;9.00;63.60
15666;DHT22;20725;51.196;3.510;2023-03-14T16:39:06;8.80;63.40
15666;DHT22;20725;51.196;3.510;2023-03-14T16:41:39;8.70;64.60
15666;DHT22;20725;51.196;3.510;2023-03-14T16:44:16;8.50;65.60
15666;DHT22;20725;51.196;3.510;2023-03-14T16:49:41;8.50;67.70
15666;DHT22;20725;51.196;3.510;2023-03-14T16:52:09;8.60;68.70
15666;DHT22;20725;51.196;3.510;2023-03-14T16:54:37;8.80;68.00
15666;DHT22;20725;51.196;3.510;2023-03-14T16:57:09;9.00;68.10
15666;DHT22;20725;51.196;3.510;2023-03-14T16:59:52;9.20;69.80
15666;DHT22;20725;51.196;3.510;2023-03-14T17:02:29;9.20;70.90
15666;DHT22;20725;51.196;3.510;2023-03-14T17:04:59;8.80;72.30
15666;DHT22;20725;51.196;3.510;2023-03-14T17:07:27;8.50;73.30
15666;DHT22;20725;51.196;3.510;2023-03-14T17:09:55;8.30;74.20
15666;DHT22;20725;51.196;3.510;2023-03-14T17:12:26;8.00;76.70
15666;DHT22;20725;51.196;3.510;2023-03-14T17:15:01;7.80;76.90
15666;DHT22;20725;51.196;3.510;2023-03-14T17:17:32;7.50;78.50
15666;DHT22;20725;51.196;3.510;2023-03-14T17:20:00;7.30;80.40
15666;DHT22;20725;51.196;3.510;2023-03-14T17:22:33;7.20;81.30
15666;DHT22;20725;51.196;3.510;2023-03-14T17:25:04;7.00;82.70
15666;DHT22;20725;51.196;3.510;2023-03-14T17:27:32;6.90;84.00
15666;DHT22;20725;51.196;3.510;2023-03-14T17:30:09;6.70;86.40
15666;DHT22;20725;51.196;3.510;2023-03-14T17:32:41;6.60;88.90
15666;DHT22;20725;51.196;3.510;2023-03-14T17:35:14;6.40;89.00
15666;DHT22;20725;51.196;3.510;2023-03-14T17:37:42;6.40;90.30
15666;DHT22;20725;51.196;3.510;2023-03-14T17:40:15;6.30;90.40
15666;DHT22;20725;51.196;3.510;2023-03-14T17:42:46;6.10;90.80
15666;DHT22;20725;51.196;3.510;2023-03-14T17:45:18;6.00;90.80
15666;DHT22;20725;51.196;3.510;2023-03-14T17:47:50;5.80;91.60
15666;DHT22;20725;51.196;3.510;2023-03-14T17:50:20;5.80;92.10
15666;DHT22;20725;51.196;3.510;2023-03-14T17:52:50;5.70;92.60
15666;DHT22;20725;51.196;3.510;2023-03-14T17:55:19;5.60;93.40
15666;DHT22;20725;51.196;3.510;2023-03-14T17:57:54;5.40;93.70
15666;DHT22;20725;51.196;3.510;2023-03-14T18:00:26;5.30;94.20
15666;DHT22;20725;51.196;3.510;2023-03-14T18:03:05;5.20;95.00
15666;DHT22;20725;51.196;3.510;2023-03-14T18:05:44;5.10;95.00
15666;DHT22;20725;51.196;3.510;2023-03-14T18:08:17;5.00;95.80
15666;DHT22;20725;51.196;3.510;2023-03-14T18:10:52;4.90;95.90
15666;DHT22;20725;51.196;3.510;2023-03-14T18:13:20;4.90;96.70
15666;DHT22;20725;51.196;3.510;2023-03-14T18:15:50;4.70;96.80
15666;DHT22;20725;51.196;3.510;2023-03-14T18:18:19;4.60;98.50
15666;DHT22;20725;51.196;3.510;2023-03-14T18:20:51;4.50;98.10
15666;DHT22;20725;51.196;3.510;2023-03-14T18:23:23;4.50;98.80
15666;DHT22;20725;51.196;3.510;2023-03-14T18:25:58;4.40;99.80
15666;DHT22;20725;51.196;3.510;2023-03-14T18:28:27;4.30;99.90